Airport View

Enter AWOS ICAO identifier for current METAR.

ex. KFNL

KJVW 100255Z AUTO 00000KT 10SM CLR 26/26 A2992 RMK AO2

10 Jul 2020 03:00

Frequency: 118.675

Phone: (601) 857-3887

Other Area AWOS: KHKS - KJAN - KMBO - KVKS

TAF KHKS 092326Z 1000/1024 26006KT P6SM VCSH SCT040 FM100300 20003KT P6SM BKN150 FM100600 VRB03KT P6SM SCT007 BKN015 FM101200 30005KT P6SM VCTS SCT015CB BKN030 FM102000 31008KT P6SM SCT050